sensor_id;sensor_type;location;lat;lon;timestamp;P1;P4;P2;P0;N10;N4;N25;N1;N05;TS
71804;SPS30;59654;52.216;5.616;2023-07-13T00:00:29;3.49;3.25;2.78;2.09;16.73;16.71;16.59;15.97;12.90;0.62
71804;SPS30;59654;52.216;5.616;2023-07-13T00:01:02;3.52;3.28;2.81;2.13;17.07;17.05;16.94;16.32;13.22;0.62
71804;SPS30;59654;52.216;5.616;2023-07-13T00:01:33;3.30;3.08;2.66;2.04;16.32;16.30;16.20;15.64;12.71;0.61
71804;SPS30;59654;52.216;5.616;2023-07-13T00:02:04;3.37;3.15;2.72;2.09;16.73;16.71;16.60;16.03;13.04;0.61
71804;SPS30;59654;52.216;5.616;2023-07-13T00:02:35;3.03;2.83;2.44;1.86;14.92;14.91;14.81;14.29;11.61;0.61
71804;SPS30;59654;52.216;5.616;2023-07-13T00:03:06;3.26;3.05;2.62;2.00;16.04;16.02;15.91;15.35;12.46;0.62
71804;SPS30;59654;52.216;5.616;2023-07-13T00:03:36;3.48;3.25;2.81;2.15;17.20;17.18;17.07;16.48;13.39;0.62
71804;SPS30;59654;52.216;5.616;2023-07-13T00:04:07;2.86;2.67;2.31;1.78;14.25;14.23;14.15;13.67;11.13;0.61
71804;SPS30;59654;52.216;5.616;2023-07-13T00:04:38;3.04;2.84;2.46;1.90;15.18;15.16;15.07;14.56;11.86;0.62
71804;SPS30;59654;52.216;5.616;2023-07-13T00:05:09;2.79;2.61;2.28;1.77;14.15;14.14;14.05;13.60;11.11;0.60
71804;SPS30;59654;52.216;5.616;2023-07-13T00:05:40;2.90;2.73;2.40;1.89;15.16;15.15;15.07;14.62;12.00;0.59
71804;SPS30;59654;52.216;5.616;2023-07-13T00:06:11;3.68;3.46;3.04;2.39;19.15;19.13;19.02;18.45;15.14;0.61
71804;SPS30;59654;52.216;5.616;2023-07-13T00:06:43;3.61;3.38;2.94;2.28;18.29;18.26;18.16;17.57;14.34;0.62
71804;SPS30;59654;52.216;5.616;2023-07-13T00:07:17;2.97;2.79;2.42;1.88;15.03;15.01;14.93;14.44;11.78;0.62
71804;SPS30;59654;52.216;5.616;2023-07-13T00:07:50;2.84;2.66;2.31;1.78;14.26;14.25;14.16;13.69;11.16;0.62
71804;SPS30;59654;52.216;5.616;2023-07-13T00:08:21;2.58;2.41;2.09;1.61;12.86;12.84;12.76;12.33;10.04;0.63
71804;SPS30;59654;52.216;5.616;2023-07-13T00:08:53;2.90;2.72;2.36;1.83;14.67;14.65;14.56;14.09;11.50;0.62
71804;SPS30;59654;52.216;5.616;2023-07-13T00:09:24;3.05;2.87;2.50;1.95;15.58;15.57;15.48;14.98;12.25;0.62
71804;SPS30;59654;52.216;5.616;2023-07-13T00:09:55;2.79;2.62;2.29;1.79;14.35;14.33;14.25;13.81;11.30;0.62
71804;SPS30;59654;52.216;5.616;2023-07-13T00:10:26;3.16;2.97;2.59;2.03;16.24;16.22;16.13;15.63;12.80;0.62
71804;SPS30;59654;52.216;5.616;2023-07-13T00:10:57;2.93;2.75;2.41;1.89;15.17;15.15;15.07;14.61;11.98;0.62
71804;SPS30;59654;52.216;5.616;2023-07-13T00:11:28;3.03;2.86;2.51;1.99;15.90;15.88;15.80;15.33;12.59;0.61
71804;SPS30;59654;52.216;5.616;2023-07-13T00:12:00;3.08;2.90;2.55;2.01;16.12;16.10;16.02;15.54;12.76;0.62
71804;SPS30;59654;52.216;5.616;2023-07-13T00:12:34;2.51;2.36;2.08;1.65;13.22;13.20;13.13;12.75;10.49;0.61
71804;SPS30;59654;52.216;5.616;2023-07-13T00:13:08;2.95;2.79;2.46;1.96;15.70;15.69;15.61;15.17;12.50;0.62
71804;SPS30;59654;52.216;5.616;2023-07-13T00:13:41;3.48;3.29;2.91;2.33;18.65;18.63;18.54;18.03;14.87;0.62
71804;SPS30;59654;52.216;5.616;2023-07-13T00:14:13;3.02;2.85;2.53;2.02;16.20;16.18;16.10;15.67;12.92;0.62
71804;SPS30;59654;52.216;5.616;2023-07-13T00:14:46;2.80;2.64;2.33;1.84;14.72;14.70;14.63;14.20;11.67;0.63
71804;SPS30;59654;52.216;5.616;2023-07-13T00:15:18;3.31;3.11;2.72;2.13;17.02;17.00;16.91;16.38;13.42;0.64
71804;SPS30;59654;52.216;5.616;2023-07-13T00:15:56;3.50;3.28;2.86;2.22;17.77;17.75;17.64;17.08;13.95;0.65
71804;SPS30;59654;52.216;5.616;2023-07-13T00:16:28;3.31;3.11;2.71;2.12;16.93;16.91;16.81;16.28;13.31;0.64
71804;SPS30;59654;52.216;5.616;2023-07-13T00:16:59;2.88;2.70;2.36;1.84;14.70;14.69;14.60;14.14;11.56;0.65
71804;SPS30;59654;52.216;5.616;2023-07-13T00:17:30;3.29;3.08;2.69;2.09;16.70;16.68;16.59;16.05;13.11;0.65
71804;SPS30;59654;52.216;5.616;2023-07-13T00:18:01;2.89;2.71;2.35;1.82;14.58;14.56;14.48;14.00;11.42;0.65
71804;SPS30;59654;52.216;5.616;2023-07-13T00:18:32;2.67;2.50;2.18;1.69;13.49;13.47;13.39;12.96;10.57;0.65
71804;SPS30;59654;52.216;5.616;2023-07-13T00:19:03;2.53;2.37;2.06;1.60;12.77;12.75;12.68;12.26;10.01;0.64
71804;SPS30;59654;52.216;5.616;2023-07-13T00:19:35;2.66;2.49;2.18;1.70;13.57;13.56;13.48;13.05;10.67;0.63
71804;SPS30;59654;52.216;5.616;2023-07-13T00:20:06;2.75;2.58;2.26;1.77;14.18;14.16;14.08;13.65;11.18;0.63
71804;SPS30;59654;52.216;5.616;2023-07-13T00:20:39;2.86;2.69;2.35;1.84;14.70;14.68;14.60;14.14;11.57;0.63
71804;SPS30;59654;52.216;5.616;2023-07-13T00:21:11;3.27;3.07;2.68;2.09;16.73;16.71;16.61;16.09;13.15;0.64
71804;SPS30;59654;52.216;5.616;2023-07-13T00:21:43;3.52;3.30;2.87;2.23;17.82;17.80;17.69;17.12;13.97;0.64
71804;SPS30;59654;52.216;5.616;2023-07-13T00:22:14;3.51;3.29;2.86;2.22;17.78;17.76;17.66;17.08;13.95;0.64
71804;SPS30;59654;52.216;5.616;2023-07-13T00:22:45;2.85;2.68;2.34;1.82;14.56;14.55;14.46;14.00;11.45;0.63
71804;SPS30;59654;52.216;5.616;2023-07-13T00:23:15;3.02;2.84;2.48;1.95;15.59;15.58;15.49;15.02;12.30;0.63
71804;SPS30;59654;52.216;5.616;2023-07-13T00:23:48;3.67;3.45;3.03;2.38;19.02;19.00;18.89;18.32;15.01;0.64
71804;SPS30;59654;52.216;5.616;2023-07-13T00:24:19;3.17;2.98;2.61;2.05;16.41;16.39;16.30;15.81;12.95;0.63
71804;SPS30;59654;52.216;5.616;2023-07-13T00:24:54;2.67;2.51;2.20;1.73;13.83;13.81;13.74;13.32;10.92;0.63
71804;SPS30;59654;52.216;5.616;2023-07-13T00:25:28;3.04;2.86;2.51;1.97;15.79;15.77;15.68;15.21;12.47;0.63
71804;SPS30;59654;52.216;5.616;2023-07-13T00:26:00;3.18;2.99;2.61;2.05;16.37;16.35;16.26;15.76;12.91;0.64
71804;SPS30;59654;52.216;5.616;2023-07-13T00:26:33;3.45;3.23;2.80;2.16;17.26;17.24;17.14;16.56;13.49;0.64
71804;SPS30;59654;52.216;5.616;2023-07-13T00:27:04;3.60;3.37;2.92;2.24;17.94;17.92;17.81;17.20;14.00;0.64
71804;SPS30;59654;52.216;5.616;2023-07-13T00:27:35;3.43;3.21;2.79;2.16;17.27;17.24;17.14;16.58;13.52;0.62
71804;SPS30;59654;52.216;5.616;2023-07-13T00:28:06;3.37;3.16;2.74;2.12;16.99;16.97;16.87;16.31;13.30;0.63
71804;SPS30;59654;52.216;5.616;2023-07-13T00:28:36;3.39;3.18;2.77;2.16;17.26;17.24;17.14;16.59;13.56;0.62
71804;SPS30;59654;52.216;5.616;2023-07-13T00:29:07;3.86;3.61;3.12;2.40;19.18;19.16;19.04;18.39;14.96;0.64
71804;SPS30;59654;52.216;5.616;2023-07-13T00:29:39;3.76;3.51;3.04;2.33;18.66;18.64;18.52;17.88;14.55;0.63
71804;SPS30;59654;52.216;5.616;2023-07-13T00:30:10;3.62;3.39;2.94;2.26;18.09;18.07;17.96;17.35;14.13;0.63
71804;SPS30;59654;52.216;5.616;2023-07-13T00:30:42;2.74;2.57;2.23;1.73;13.87;13.85;13.77;13.32;10.88;0.62
71804;SPS30;59654;52.216;5.616;2023-07-13T00:31:14;2.90;2.73;2.39;1.87;15.00;14.98;14.90;14.44;11.83;0.61
71804;SPS30;59654;52.216;5.616;2023-07-13T00:31:45;3.13;2.95;2.59;2.04;16.30;16.28;16.19;15.71;12.89;0.61
71804;SPS30;59654;52.216;5.616;2023-07-13T00:32:16;3.44;3.24;2.84;2.23;17.82;17.80;17.70;17.16;14.06;0.61
71804;SPS30;59654;52.216;5.616;2023-07-13T00:32:47;3.22;3.03;2.65;2.08;16.64;16.62;16.53;16.02;13.13;0.63
71804;SPS30;59654;52.216;5.616;2023-07-13T00:33:18;3.58;3.35;2.91;2.25;18.05;18.03;17.92;17.33;14.14;0.63
71804;SPS30;59654;52.216;5.616;2023-07-13T00:33:49;3.29;3.08;2.68;2.08;16.62;16.60;16.50;15.96;13.02;0.63
71804;SPS30;59654;52.216;5.616;2023-07-13T00:34:21;2.78;2.61;2.27;1.76;14.08;14.06;13.98;13.52;11.03;0.63
71804;SPS30;59654;52.216;5.616;2023-07-13T00:34:53;3.20;3.00;2.61;2.02;16.16;16.14;16.04;15.51;12.66;0.62
71804;SPS30;59654;52.216;5.616;2023-07-13T00:35:25;3.37;3.16;2.76;2.15;17.17;17.15;17.05;16.51;13.49;0.61
71804;SPS30;59654;52.216;5.616;2023-07-13T00:35:56;3.43;3.22;2.80;2.18;17.44;17.42;17.32;16.76;13.69;0.60
71804;SPS30;59654;52.216;5.616;2023-07-13T00:36:29;3.12;2.93;2.56;2.00;16.03;16.01;15.92;15.43;12.63;0.60
71804;SPS30;59654;52.216;5.616;2023-07-13T00:37:02;2.94;2.75;2.40;1.86;14.89;14.87;14.78;14.31;11.68;0.61
71804;SPS30;59654;52.216;5.616;2023-07-13T00:37:33;3.14;2.94;2.55;1.98;15.82;15.80;15.71;15.19;12.40;0.61
71804;SPS30;59654;52.216;5.616;2023-07-13T00:38:05;3.16;2.96;2.57;1.99;15.95;15.93;15.83;15.32;12.50;0.60
71804;SPS30;59654;52.216;5.616;2023-07-13T00:38:36;3.15;2.95;2.58;2.01;16.07;16.05;15.96;15.46;12.64;0.59
71804;SPS30;59654;52.216;5.616;2023-07-13T00:39:08;3.11;2.93;2.57;2.03;16.22;16.20;16.11;15.63;12.83;0.58
71804;SPS30;59654;52.216;5.616;2023-07-13T00:39:39;3.99;3.76;3.32;2.64;21.11;21.09;20.98;20.38;16.77;0.58
71804;SPS30;59654;52.216;5.616;2023-07-13T00:40:10;3.49;3.30;2.91;2.31;18.50;18.48;18.38;17.86;14.70;0.59
71804;SPS30;59654;52.216;5.616;2023-07-13T00:40:43;4.11;3.88;3.42;2.72;21.73;21.71;21.60;20.98;17.26;0.59
71804;SPS30;59654;52.216;5.616;2023-07-13T00:41:14;3.81;3.59;3.16;2.49;19.90;19.88;19.77;19.18;15.75;0.60
71804;SPS30;59654;52.216;5.616;2023-07-13T00:41:45;3.27;3.08;2.69;2.11;16.89;16.87;16.78;16.26;13.32;0.60
71804;SPS30;59654;52.216;5.616;2023-07-13T00:42:16;3.59;3.37;2.95;2.30;18.40;18.38;18.27;17.70;14.48;0.60
71804;SPS30;59654;52.216;5.616;2023-07-13T00:42:47;3.12;2.93;2.58;2.03;16.21;16.19;16.11;15.62;12.81;0.59
71804;SPS30;59654;52.216;5.616;2023-07-13T00:43:20;3.40;3.20;2.81;2.22;17.76;17.74;17.65;17.13;14.06;0.60
71804;SPS30;59654;52.216;5.616;2023-07-13T00:43:53;3.47;3.27;2.87;2.26;18.06;18.03;17.94;17.40;14.27;0.62
71804;SPS30;59654;52.216;5.616;2023-07-13T00:44:24;3.51;3.29;2.87;2.22;17.81;17.78;17.68;17.11;13.97;0.64
71804;SPS30;59654;52.216;5.616;2023-07-13T00:45:02;3.64;3.40;2.95;2.27;18.16;18.14;18.03;17.42;14.18;0.63
71804;SPS30;59654;52.216;5.616;2023-07-13T00:46:19;3.70;3.46;2.99;2.29;18.32;18.30;18.18;17.56;14.28;0.62
71804;SPS30;59654;52.216;5.616;2023-07-13T00:46:54;3.57;3.34;2.89;2.21;17.69;17.66;17.55;16.94;13.77;0.62
71804;SPS30;59654;52.216;5.616;2023-07-13T00:47:28;3.29;3.08;2.66;2.04;16.35;16.33;16.22;15.67;12.74;0.63
71804;SPS30;59654;52.216;5.616;2023-07-13T00:47:58;3.27;3.06;2.65;2.03;16.27;16.24;16.14;15.59;12.68;0.63
71804;SPS30;59654;52.216;5.616;2023-07-13T00:48:32;3.12;2.91;2.51;1.92;15.40;15.38;15.28;14.75;11.98;0.64
71804;SPS30;59654;52.216;5.616;2023-07-13T00:49:13;3.45;3.22;2.76;2.09;16.73;16.71;16.59;15.99;12.94;0.65
71804;SPS30;59654;52.216;5.616;2023-07-13T00:49:49;3.37;3.13;2.67;2.00;16.05;16.02;15.91;15.30;12.34;0.65
71804;SPS30;59654;52.216;5.616;2023-07-13T00:50:21;2.83;2.64;2.26;1.71;13.68;13.66;13.57;13.07;10.57;0.64
71804;SPS30;59654;52.216;5.616;2023-07-13T00:50:53;2.47;2.31;2.00;1.53;12.28;12.27;12.19;11.77;9.58;0.63
71804;SPS30;59654;52.216;5.616;2023-07-13T00:51:32;2.84;2.66;2.31;1.78;14.22;14.21;14.12;13.65;11.12;0.63
71804;SPS30;59654;52.216;5.616;2023-07-13T00:52:10;3.48;3.26;2.84;2.20;17.57;17.55;17.45;16.87;13.76;0.63
71804;SPS30;59654;52.216;5.616;2023-07-13T00:52:43;3.74;3.50;3.04;2.34;18.71;18.69;18.58;17.95;14.62;0.64
71804;SPS30;59654;52.216;5.616;2023-07-13T00:53:19;3.02;2.83;2.46;1.90;15.24;15.22;15.13;14.64;11.95;0.64
71804;SPS30;59654;52.216;5.616;2023-07-13T00:53:52;3.32;3.12;2.73;2.13;17.04;17.02;16.93;16.40;13.42;0.63
71804;SPS30;59654;52.216;5.616;2023-07-13T00:54:29;3.72;3.51;3.09;2.44;19.56;19.54;19.44;18.87;15.51;0.61
71804;SPS30;59654;52.216;5.616;2023-07-13T00:55:08;3.43;3.23;2.85;2.25;18.00;17.98;17.88;17.36;14.26;0.62
71804;SPS30;59654;52.216;5.616;2023-07-13T00:55:43;3.68;3.47;3.05;2.40;19.24;19.22;19.12;18.55;15.23;0.62
71804;SPS30;59654;52.216;5.616;2023-07-13T00:56:14;3.63;3.43;3.03;2.41;19.30;19.28;19.18;18.64;15.35;0.61
71804;SPS30;59654;52.216;5.616;2023-07-13T00:56:47;3.77;3.57;3.16;2.53;20.25;20.23;20.13;19.58;16.15;0.61
71804;SPS30;59654;52.216;5.616;2023-07-13T00:57:22;4.22;3.99;3.53;2.82;22.57;22.54;22.43;21.81;17.98;0.62
71804;SPS30;59654;52.216;5.616;2023-07-13T00:57:55;3.37;3.19;2.82;2.26;18.04;18.02;17.94;17.44;14.38;0.62
71804;SPS30;59654;52.216;5.616;2023-07-13T00:58:26;3.16;2.98;2.64;2.11;16.92;16.90;16.82;16.35;13.49;0.61
71804;SPS30;59654;52.216;5.616;2023-07-13T00:59:02;3.04;2.87;2.54;2.02;16.14;16.12;16.04;15.59;12.83;0.60
71804;SPS30;59654;52.216;5.616;2023-07-13T00:59:37;3.22;3.04;2.70;2.17;17.35;17.34;17.25;16.79;13.86;0.60
71804;SPS30;59654;52.216;5.616;2023-07-13T01:00:15;3.09;2.93;2.61;2.11;16.86;16.85;16.77;16.33;13.51;0.60
71804;SPS30;59654;52.216;5.616;2023-07-13T01:00:48;3.13;2.97;2.66;2.16;17.27;17.25;17.18;16.75;13.88;0.60
71804;SPS30;59654;52.216;5.616;2023-07-13T01:01:21;2.93;2.78;2.48;2.01;16.04;16.02;15.95;15.54;12.86;0.62
71804;SPS30;59654;52.216;5.616;2023-07-13T01:01:51;3.52;3.34;2.97;2.39;19.12;19.10;19.01;18.51;15.30;0.61
71804;SPS30;59654;52.216;5.616;2023-07-13T01:02:23;3.52;3.33;2.97;2.39;19.10;19.08;18.99;18.49;15.28;0.60
71804;SPS30;59654;52.216;5.616;2023-07-13T01:02:55;3.20;3.03;2.71;2.20;17.62;17.60;17.52;17.08;14.15;0.60
71804;SPS30;59654;52.216;5.616;2023-07-13T01:03:30;2.99;2.84;2.53;2.04;16.34;16.32;16.25;15.83;13.09;0.60
71804;SPS30;59654;52.216;5.616;2023-07-13T01:04:01;3.31;3.13;2.77;2.22;17.73;17.71;17.62;17.13;14.12;0.59
71804;SPS30;59654;52.216;5.616;2023-07-13T01:04:32;3.34;3.15;2.79;2.23;17.82;17.80;17.71;17.22;14.19;0.59
71804;SPS30;59654;52.216;5.616;2023-07-13T01:05:23;2.97;2.81;2.51;2.03;16.20;16.19;16.11;15.69;12.98;0.57
71804;SPS30;59654;52.216;5.616;2023-07-13T01:05:55;3.18;3.04;2.77;2.31;18.47;18.45;18.39;18.00;15.04;0.55
71804;SPS30;59654;52.216;5.616;2023-07-13T01:06:27;3.23;3.09;2.83;2.38;19.02;19.00;18.94;18.57;15.55;0.55
71804;SPS30;59654;52.216;5.616;2023-07-13T01:06:59;3.13;3.00;2.73;2.29;18.27;18.26;18.19;17.82;14.90;0.55
71804;SPS30;59654;52.216;5.616;2023-07-13T01:07:32;3.37;3.21;2.91;2.40;19.23;19.21;19.13;18.71;15.59;0.56
71804;SPS30;59654;52.216;5.616;2023-07-13T01:08:03;3.59;3.42;3.08;2.53;20.25;20.23;20.15;19.68;16.37;0.57
71804;SPS30;59654;52.216;5.616;2023-07-13T01:08:37;3.52;3.35;3.02;2.48;19.80;19.78;19.70;19.24;16.00;0.56
71804;SPS30;59654;52.216;5.616;2023-07-13T01:09:09;3.54;3.37;3.04;2.49;19.90;19.89;19.80;19.34;16.07;0.58
71804;SPS30;59654;52.216;5.616;2023-07-13T01:09:42;3.30;3.14;2.82;2.31;18.48;18.46;18.38;17.95;14.91;0.59
71804;SPS30;59654;52.216;5.616;2023-07-13T01:10:15;3.13;2.99;2.70;2.23;17.86;17.85;17.78;17.38;14.48;0.57
71804;SPS30;59654;52.216;5.616;2023-07-13T01:10:56;3.01;2.88;2.62;2.18;17.41;17.39;17.33;16.96;14.17;0.56
71804;SPS30;59654;52.216;5.616;2023-07-13T01:11:28;3.54;3.39;3.11;2.62;20.96;20.94;20.87;20.47;17.15;0.55
71804;SPS30;59654;52.216;5.616;2023-07-13T01:12:00;3.16;3.03;2.79;2.36;18.88;18.87;18.81;18.46;15.49;0.56
71804;SPS30;59654;52.216;5.616;2023-07-13T01:12:31;3.35;3.22;2.95;2.49;19.93;19.91;19.85;19.47;16.32;0.56
71804;SPS30;59654;52.216;5.616;2023-07-13T01:13:02;3.25;3.12;2.86;2.41;19.30;19.28;19.22;18.85;15.80;0.56
71804;SPS30;59654;52.216;5.616;2023-07-13T01:13:33;3.33;3.20;2.95;2.50;19.99;19.97;19.91;19.55;16.41;0.56
71804;SPS30;59654;52.216;5.616;2023-07-13T01:14:04;3.52;3.39;3.12;2.66;21.24;21.22;21.16;20.78;17.46;0.55
71804;SPS30;59654;52.216;5.616;2023-07-13T01:14:35;3.12;2.99;2.75;2.32;18.56;18.54;18.48;18.14;15.21;0.56
71804;SPS30;59654;52.216;5.616;2023-07-13T01:16:26;2.58;2.47;2.27;1.91;15.24;15.22;15.17;14.88;12.46;0.57
71804;SPS30;59654;52.216;5.616;2023-07-13T01:17:01;2.98;2.87;2.64;2.24;17.94;17.93;17.87;17.55;14.74;0.55
71804;SPS30;59654;52.216;5.616;2023-07-13T01:17:33;2.93;2.83;2.62;2.25;17.95;17.94;17.89;17.59;14.81;0.55
71804;SPS30;59654;52.216;5.616;2023-07-13T01:18:09;3.61;3.47;3.22;2.75;21.97;21.96;21.89;21.52;18.11;0.55
71804;SPS30;59654;52.216;5.616;2023-07-13T01:18:51;3.08;2.97;2.74;2.34;18.70;18.69;18.63;18.31;15.40;0.55
71804;SPS30;59654;52.216;5.616;2023-07-13T01:19:36;2.76;2.65;2.43;2.04;16.32;16.31;16.25;15.94;13.35;0.56
71804;SPS30;59654;52.216;5.616;2023-07-13T01:20:13;3.51;3.35;3.03;2.51;20.04;20.03;19.95;19.51;16.25;0.57
71804;SPS30;59654;52.216;5.616;2023-07-13T01:21:33;2.76;2.65;2.43;2.05;16.40;16.39;16.34;16.03;13.44;0.55
71804;SPS30;59654;52.216;5.616;2023-07-13T01:22:09;2.84;2.73;2.52;2.14;17.14;17.13;17.08;16.77;14.10;0.54
71804;SPS30;59654;52.216;5.616;2023-07-13T01:22:44;2.82;2.72;2.51;2.13;17.06;17.04;16.99;16.69;14.03;0.54
71804;SPS30;59654;52.216;5.616;2023-07-13T01:23:15;2.88;2.77;2.56;2.19;17.48;17.47;17.42;17.12;14.40;0.54
71804;SPS30;59654;52.216;5.616;2023-07-13T01:23:46;2.96;2.86;2.64;2.26;18.04;18.03;17.97;17.66;14.86;0.54
71804;SPS30;59654;52.216;5.616;2023-07-13T01:24:18;3.24;3.12;2.89;2.46;19.65;19.64;19.58;19.24;16.18;0.54
71804;SPS30;59654;52.216;5.616;2023-07-13T01:24:49;3.08;2.97;2.74;2.34;18.72;18.71;18.66;18.34;15.42;0.54
71804;SPS30;59654;52.216;5.616;2023-07-13T01:25:20;2.88;2.78;2.58;2.21;17.64;17.63;17.57;17.28;14.55;0.54
71804;SPS30;59654;52.216;5.616;2023-07-13T01:25:52;2.73;2.63;2.45;2.10;16.78;16.77;16.72;16.44;13.86;0.54
71804;SPS30;59654;52.216;5.616;2023-07-13T01:26:24;3.03;2.93;2.73;2.35;18.82;18.81;18.76;18.47;15.59;0.54
71804;SPS30;59654;52.216;5.616;2023-07-13T01:26:54;2.91;2.82;2.64;2.29;18.33;18.32;18.27;18.01;15.23;0.53
71804;SPS30;59654;52.216;5.616;2023-07-13T01:27:26;2.65;2.57;2.42;2.10;16.82;16.81;16.77;16.53;13.99;0.52
71804;SPS30;59654;52.216;5.616;2023-07-13T01:27:57;2.65;2.57;2.42;2.11;16.85;16.84;16.80;16.57;14.02;0.53
71804;SPS30;59654;52.216;5.616;2023-07-13T01:28:28;2.52;2.45;2.30;2.01;16.07;16.06;16.02;15.80;13.38;0.52
71804;SPS30;59654;52.216;5.616;2023-07-13T01:29:00;2.55;2.48;2.34;2.05;16.42;16.41;16.38;16.17;13.71;0.52
71804;SPS30;59654;52.216;5.616;2023-07-13T01:29:32;2.68;2.60;2.46;2.16;17.26;17.25;17.21;16.99;14.41;0.51
71804;SPS30;59654;52.216;5.616;2023-07-13T01:30:12;2.83;2.75;2.61;2.30;18.36;18.35;18.32;18.09;15.36;0.50
71804;SPS30;59654;52.216;5.616;2023-07-13T01:30:43;2.56;2.50;2.36;2.08;16.63;16.62;16.59;16.38;13.91;0.49
71804;SPS30;59654;52.216;5.616;2023-07-13T01:31:16;2.88;2.81;2.66;2.35;18.81;18.80;18.77;18.54;15.75;0.49
71804;SPS30;59654;52.216;5.616;2023-07-13T01:31:47;2.43;2.36;2.24;1.98;15.83;15.83;15.79;15.61;13.26;0.48
71804;SPS30;59654;52.216;5.616;2023-07-13T01:32:19;2.56;2.50;2.39;2.13;17.00;16.99;16.96;16.78;14.28;0.48
71804;SPS30;59654;52.216;5.616;2023-07-13T01:32:54;2.42;2.38;2.32;2.12;16.95;16.95;16.93;16.81;14.41;0.48
71804;SPS30;59654;52.216;5.616;2023-07-13T01:33:25;2.65;2.59;2.47;2.20;17.61;17.60;17.57;17.38;14.80;0.48
71804;SPS30;59654;52.216;5.616;2023-07-13T01:33:57;2.82;2.75;2.61;2.30;18.39;18.39;18.35;18.13;15.39;0.49
71804;SPS30;59654;52.216;5.616;2023-07-13T01:34:28;3.36;3.27;3.08;2.70;21.61;21.60;21.55;21.27;18.04;0.49
71804;SPS30;59654;52.216;5.616;2023-07-13T01:34:59;3.52;3.40;3.19;2.77;22.13;22.12;22.06;21.74;18.38;0.49
71804;SPS30;59654;52.216;5.616;2023-07-13T01:35:29;2.96;2.86;2.67;2.31;18.44;18.43;18.38;18.10;15.27;0.50
71804;SPS30;59654;52.216;5.616;2023-07-13T01:36:00;2.84;2.75;2.56;2.21;17.63;17.62;17.57;17.30;14.59;0.49
71804;SPS30;59654;52.216;5.616;2023-07-13T01:36:32;2.97;2.87;2.68;2.32;18.56;18.55;18.50;18.22;15.39;0.50
71804;SPS30;59654;52.216;5.616;2023-07-13T01:37:06;3.66;3.55;3.32;2.88;23.05;23.04;22.98;22.64;19.14;0.50
71804;SPS30;59654;52.216;5.616;2023-07-13T01:37:37;3.19;3.09;2.89;2.51;20.09;20.08;20.03;19.74;16.70;0.51
71804;SPS30;59654;52.216;5.616;2023-07-13T01:38:08;3.14;3.04;2.85;2.48;19.78;19.77;19.72;19.44;16.43;0.51
71804;SPS30;59654;52.216;5.616;2023-07-13T01:38:41;3.11;3.01;2.83;2.46;19.70;19.69;19.64;19.36;16.39;0.50
71804;SPS30;59654;52.216;5.616;2023-07-13T01:39:12;2.76;2.68;2.52;2.21;17.63;17.62;17.58;17.34;14.69;0.50
71804;SPS30;59654;52.216;5.616;2023-07-13T01:39:42;2.75;2.67;2.52;2.20;17.59;17.58;17.54;17.31;14.66;0.50
71804;SPS30;59654;52.216;5.616;2023-07-13T01:40:13;2.75;2.68;2.52;2.21;17.68;17.67;17.63;17.40;14.75;0.50
71804;SPS30;59654;52.216;5.616;2023-07-13T01:40:44;2.72;2.64;2.49;2.18;17.43;17.42;17.38;17.15;14.54;0.50
71804;SPS30;59654;52.216;5.616;2023-07-13T01:41:16;3.02;2.93;2.76;2.42;19.35;19.33;19.29;19.04;16.13;0.50
71804;SPS30;59654;52.216;5.616;2023-07-13T01:41:47;2.81;2.73;2.59;2.29;18.29;18.28;18.25;18.03;15.31;0.50
71804;SPS30;59654;52.216;5.616;2023-07-13T01:42:18;2.76;2.69;2.56;2.27;18.13;18.12;18.08;17.88;15.20;0.49
71804;SPS30;59654;52.216;5.616;2023-07-13T01:42:49;2.80;2.73;2.59;2.29;18.32;18.31;18.27;18.06;15.35;0.49
71804;SPS30;59654;52.216;5.616;2023-07-13T01:43:20;2.41;2.35;2.22;1.96;15.68;15.67;15.64;15.45;13.12;0.49
71804;SPS30;59654;52.216;5.616;2023-07-13T01:43:51;2.43;2.37;2.25;1.99;15.94;15.93;15.90;15.71;13.35;0.49
71804;SPS30;59654;52.216;5.616;2023-07-13T01:44:22;2.99;2.91;2.77;2.46;19.64;19.63;19.59;19.37;16.47;0.49
71804;SPS30;59654;52.216;5.616;2023-07-13T01:44:53;2.92;2.85;2.71;2.41;19.23;19.22;19.19;18.97;16.14;0.49
71804;SPS30;59654;52.216;5.616;2023-07-13T01:45:24;2.92;2.85;2.72;2.42;19.35;19.34;19.31;19.10;16.25;0.49
71804;SPS30;59654;52.216;5.616;2023-07-13T01:45:55;2.81;2.75;2.63;2.35;18.80;18.79;18.76;18.56;15.82;0.49
71804;SPS30;59654;52.216;5.616;2023-07-13T01:46:26;2.78;2.72;2.60;2.32;18.52;18.51;18.48;18.28;15.57;0.50
71804;SPS30;59654;52.216;5.616;2023-07-13T01:46:57;2.63;2.56;2.44;2.17;17.32;17.32;17.28;17.09;14.54;0.49
71804;SPS30;59654;52.216;5.616;2023-07-13T01:47:28;2.66;2.60;2.47;2.20;17.58;17.57;17.54;17.34;14.76;0.49
71804;SPS30;59654;52.216;5.616;2023-07-13T01:48:00;2.96;2.89;2.75;2.45;19.58;19.57;19.54;19.32;16.45;0.48
71804;SPS30;59654;52.216;5.616;2023-07-13T01:48:31;3.16;3.09;2.95;2.63;21.02;21.01;20.97;20.75;17.67;0.48
71804;SPS30;59654;52.216;5.616;2023-07-13T01:49:02;2.98;2.91;2.77;2.47;19.72;19.71;19.67;19.46;16.56;0.48
71804;SPS30;59654;52.216;5.616;2023-07-13T01:49:33;2.44;2.41;2.37;2.19;17.45;17.44;17.43;17.33;14.90;0.47
71804;SPS30;59654;52.216;5.616;2023-07-13T01:50:04;2.35;2.34;2.33;2.20;17.53;17.53;17.52;17.47;15.08;0.47
71804;SPS30;59654;52.216;5.616;2023-07-13T01:50:35;2.16;2.16;2.16;2.05;16.34;16.34;16.34;16.30;14.09;0.47
71804;SPS30;59654;52.216;5.616;2023-07-13T01:51:07;2.46;2.46;2.45;2.31;18.48;18.48;18.47;18.42;15.92;0.47
71804;SPS30;59654;52.216;5.616;2023-07-13T01:51:37;2.17;2.17;2.17;2.05;16.39;16.39;16.39;16.35;14.13;0.47
71804;SPS30;59654;52.216;5.616;2023-07-13T01:52:08;2.38;2.38;2.38;2.25;18.00;18.00;18.00;17.95;15.52;0.46
71804;SPS30;59654;52.216;5.616;2023-07-13T01:52:39;2.70;2.70;2.70;2.55;20.36;20.35;20.35;20.30;17.55;0.47
71804;SPS30;59654;52.216;5.616;2023-07-13T01:53:10;2.71;2.70;2.69;2.52;20.15;20.15;20.14;20.08;17.33;0.47
71804;SPS30;59654;52.216;5.616;2023-07-13T01:53:41;2.67;2.67;2.66;2.51;20.08;20.08;20.07;20.02;17.30;0.47
71804;SPS30;59654;52.216;5.616;2023-07-13T01:54:12;2.62;2.62;2.62;2.48;19.80;19.80;19.79;19.75;17.07;0.47
71804;SPS30;59654;52.216;5.616;2023-07-13T01:54:43;2.25;2.25;2.25;2.12;16.96;16.95;16.95;16.91;14.62;0.47
71804;SPS30;59654;52.216;5.616;2023-07-13T01:55:14;2.45;2.45;2.43;2.29;18.26;18.26;18.25;18.19;15.70;0.47
71804;SPS30;59654;52.216;5.616;2023-07-13T01:55:45;2.73;2.73;2.72;2.56;20.44;20.43;20.43;20.36;17.59;0.48
71804;SPS30;59654;52.216;5.616;2023-07-13T01:56:16;2.61;2.57;2.49;2.26;18.05;18.04;18.02;17.87;15.29;0.48
71804;SPS30;59654;52.216;5.616;2023-07-13T01:56:47;2.82;2.76;2.64;2.36;18.82;18.81;18.78;18.59;15.84;0.49
71804;SPS30;59654;52.216;5.616;2023-07-13T01:57:17;3.04;2.97;2.83;2.52;20.11;20.10;20.06;19.84;16.89;0.48
71804;SPS30;59654;52.216;5.616;2023-07-13T01:57:49;2.83;2.76;2.63;2.33;18.62;18.61;18.57;18.36;15.62;0.49
71804;SPS30;59654;52.216;5.616;2023-07-13T01:58:20;2.42;2.35;2.22;1.95;15.61;15.60;15.57;15.37;13.04;0.50
71804;SPS30;59654;52.216;5.616;2023-07-13T01:58:51;2.83;2.74;2.58;2.25;18.00;17.99;17.95;17.70;14.99;0.50
71804;SPS30;59654;52.216;5.616;2023-07-13T01:59:24;3.11;3.02;2.84;2.48;19.79;19.78;19.74;19.46;16.48;0.49
71804;SPS30;59654;52.216;5.616;2023-07-13T01:59:54;2.84;2.76;2.59;2.26;18.10;18.09;18.05;17.80;15.07;0.50
71804;SPS30;59654;52.216;5.616;2023-07-13T02:00:25;2.95;2.86;2.69;2.35;18.76;18.75;18.70;18.45;15.62;0.50
71804;SPS30;59654;52.216;5.616;2023-07-13T02:00:56;3.20;3.10;2.91;2.54;20.27;20.26;20.21;19.93;16.86;0.50
71804;SPS30;59654;52.216;5.616;2023-07-13T02:01:27;2.69;2.61;2.45;2.13;17.04;17.03;16.99;16.75;14.17;0.50
71804;SPS30;59654;52.216;5.616;2023-07-13T02:01:58;3.13;3.04;2.85;2.48;19.82;19.81;19.76;19.48;16.48;0.49
71804;SPS30;59654;52.216;5.616;2023-07-13T02:02:29;3.35;3.24;3.04;2.64;21.08;21.06;21.01;20.70;17.50;0.49
71804;SPS30;59654;52.216;5.616;2023-07-13T02:03:00;2.90;2.82;2.65;2.31;18.48;18.47;18.42;18.17;15.38;0.49
71804;SPS30;59654;52.216;5.616;2023-07-13T02:03:31;2.99;2.90;2.74;2.41;19.26;19.25;19.21;18.96;16.09;0.49
71804;SPS30;59654;52.216;5.616;2023-07-13T02:04:03;2.84;2.76;2.61;2.30;18.35;18.34;18.30;18.07;15.33;0.49